sensor_id;sensor_type;location;lat;lon;timestamp;temperature;humidity
4635;DHT22;2330;48.158;11.816;2023-01-16T00:01:26;1.00;98.50
4635;DHT22;2330;48.158;11.816;2023-01-16T00:03:54;1.00;98.50
4635;DHT22;2330;48.158;11.816;2023-01-16T00:06:21;1.00;98.50
4635;DHT22;2330;48.158;11.816;2023-01-16T00:08:47;1.10;98.50
4635;DHT22;2330;48.158;11.816;2023-01-16T00:11:15;1.00;98.50
4635;DHT22;2330;48.158;11.816;2023-01-16T00:13:42;1.00;98.50
4635;DHT22;2330;48.158;11.816;2023-01-16T00:16:09;1.00;98.50
4635;DHT22;2330;48.158;11.816;2023-01-16T00:18:36;1.00;98.50
4635;DHT22;2330;48.158;11.816;2023-01-16T00:21:02;1.00;98.50
4635;DHT22;2330;48.158;11.816;2023-01-16T00:23:29;1.10;98.50
4635;DHT22;2330;48.158;11.816;2023-01-16T00:25:56;1.10;98.50
4635;DHT22;2330;48.158;11.816;2023-01-16T00:28:22;1.10;98.50
4635;DHT22;2330;48.158;11.816;2023-01-16T00:30:49;1.00;98.50
4635;DHT22;2330;48.158;11.816;2023-01-16T00:33:16;1.00;98.50
4635;DHT22;2330;48.158;11.816;2023-01-16T00:35:45;0.90;98.50
4635;DHT22;2330;48.158;11.816;2023-01-16T00:38:12;0.90;98.50
4635;DHT22;2330;48.158;11.816;2023-01-16T00:40:39;0.90;98.50
4635;DHT22;2330;48.158;11.816;2023-01-16T00:43:05;0.90;98.50
4635;DHT22;2330;48.158;11.816;2023-01-16T00:45:32;0.90;98.50
4635;DHT22;2330;48.158;11.816;2023-01-16T00:47:59;0.90;98.50
4635;DHT22;2330;48.158;11.816;2023-01-16T00:50:26;1.00;98.50
4635;DHT22;2330;48.158;11.816;2023-01-16T00:52:52;0.90;98.50
4635;DHT22;2330;48.158;11.816;2023-01-16T00:55:19;0.90;98.50
4635;DHT22;2330;48.158;11.816;2023-01-16T00:57:46;1.00;98.50
4635;DHT22;2330;48.158;11.816;2023-01-16T01:00:13;1.00;98.50
4635;DHT22;2330;48.158;11.816;2023-01-16T01:02:40;1.00;98.50
4635;DHT22;2330;48.158;11.816;2023-01-16T01:05:07;1.00;98.50
4635;DHT22;2330;48.158;11.816;2023-01-16T01:07:33;1.00;98.50
4635;DHT22;2330;48.158;11.816;2023-01-16T01:10:00;1.00;98.50
4635;DHT22;2330;48.158;11.816;2023-01-16T01:12:27;1.00;98.50
4635;DHT22;2330;48.158;11.816;2023-01-16T01:14:54;1.00;98.50
4635;DHT22;2330;48.158;11.816;2023-01-16T01:17:20;1.00;98.50
4635;DHT22;2330;48.158;11.816;2023-01-16T01:19:48;1.00;98.50
4635;DHT22;2330;48.158;11.816;2023-01-16T01:22:15;1.00;98.50
4635;DHT22;2330;48.158;11.816;2023-01-16T01:24:42;1.00;98.50
4635;DHT22;2330;48.158;11.816;2023-01-16T01:27:10;1.00;98.50
4635;DHT22;2330;48.158;11.816;2023-01-16T01:29:37;1.00;98.50
4635;DHT22;2330;48.158;11.816;2023-01-16T01:32:04;1.00;98.50
4635;DHT22;2330;48.158;11.816;2023-01-16T01:34:33;1.00;98.50
4635;DHT22;2330;48.158;11.816;2023-01-16T01:37:05;1.00;98.50
4635;DHT22;2330;48.158;11.816;2023-01-16T01:39:32;1.00;98.50
4635;DHT22;2330;48.158;11.816;2023-01-16T01:41:59;1.00;98.50
4635;DHT22;2330;48.158;11.816;2023-01-16T01:47:17;1.00;98.50
4635;DHT22;2330;48.158;11.816;2023-01-16T01:49:44;1.00;98.50
4635;DHT22;2330;48.158;11.816;2023-01-16T01:52:11;1.00;98.50
4635;DHT22;2330;48.158;11.816;2023-01-16T01:54:44;1.00;98.50
4635;DHT22;2330;48.158;11.816;2023-01-16T01:57:21;1.00;98.50
4635;DHT22;2330;48.158;11.816;2023-01-16T02:00:10;1.10;98.50
4635;DHT22;2330;48.158;11.816;2023-01-16T02:03:27;1.10;98.50
4635;DHT22;2330;48.158;11.816;2023-01-16T02:05:33;1.10;98.50
4635;DHT22;2330;48.158;11.816;2023-01-16T02:08:02;1.10;98.50
4635;DHT22;2330;48.158;11.816;2023-01-16T02:10:39;1.00;98.50
4635;DHT22;2330;48.158;11.816;2023-01-16T02:13:06;1.00;98.50
4635;DHT22;2330;48.158;11.816;2023-01-16T02:15:34;1.00;98.50
4635;DHT22;2330;48.158;11.816;2023-01-16T02:18:01;0.90;98.50
4635;DHT22;2330;48.158;11.816;2023-01-16T02:21:08;0.90;98.50
4635;DHT22;2330;48.158;11.816;2023-01-16T02:32:25;0.90;98.50
4635;DHT22;2330;48.158;11.816;2023-01-16T02:37:49;0.90;98.50
4635;DHT22;2330;48.158;11.816;2023-01-16T02:40:38;0.80;98.50
4635;DHT22;2330;48.158;11.816;2023-01-16T02:43:32;0.70;98.50
4635;DHT22;2330;48.158;11.816;2023-01-16T02:49:12;0.70;98.50
4635;DHT22;2330;48.158;11.816;2023-01-16T02:52:10;0.70;98.50
4635;DHT22;2330;48.158;11.816;2023-01-16T02:54:46;0.80;98.50
4635;DHT22;2330;48.158;11.816;2023-01-16T02:57:20;0.80;98.50
4635;DHT22;2330;48.158;11.816;2023-01-16T02:59:49;0.80;98.50
4635;DHT22;2330;48.158;11.816;2023-01-16T03:02:16;0.80;98.50
4635;DHT22;2330;48.158;11.816;2023-01-16T03:04:48;0.80;98.50
4635;DHT22;2330;48.158;11.816;2023-01-16T03:16:02;0.80;98.50
4635;DHT22;2330;48.158;11.816;2023-01-16T03:18:34;0.80;98.50
4635;DHT22;2330;48.158;11.816;2023-01-16T03:24:27;0.70;98.50
4635;DHT22;2330;48.158;11.816;2023-01-16T03:27:08;0.60;98.50
4635;DHT22;2330;48.158;11.816;2023-01-16T03:29:42;0.50;98.50
4635;DHT22;2330;48.158;11.816;2023-01-16T03:32:52;0.40;98.50
4635;DHT22;2330;48.158;11.816;2023-01-16T03:35:29;0.30;98.50
4635;DHT22;2330;48.158;11.816;2023-01-16T03:38:02;0.20;98.50
4635;DHT22;2330;48.158;11.816;2023-01-16T03:40:34;0.20;98.50
4635;DHT22;2330;48.158;11.816;2023-01-16T03:43:20;0.20;98.50
4635;DHT22;2330;48.158;11.816;2023-01-16T03:51:24;0.00;98.50
4635;DHT22;2330;48.158;11.816;2023-01-16T03:57:19;0.10;98.50
4635;DHT22;2330;48.158;11.816;2023-01-16T03:59:48;0.10;98.50
4635;DHT22;2330;48.158;11.816;2023-01-16T04:02:36;0.10;98.50
4635;DHT22;2330;48.158;11.816;2023-01-16T04:07:59;0.10;98.50
4635;DHT22;2330;48.158;11.816;2023-01-16T04:10:34;0.10;98.50
4635;DHT22;2330;48.158;11.816;2023-01-16T04:13:07;0.10;98.50
4635;DHT22;2330;48.158;11.816;2023-01-16T04:15:37;0.10;98.50
4635;DHT22;2330;48.158;11.816;2023-01-16T04:18:06;0.10;98.50
4635;DHT22;2330;48.158;11.816;2023-01-16T04:20:33;0.10;98.50
4635;DHT22;2330;48.158;11.816;2023-01-16T04:23:02;0.10;98.50
4635;DHT22;2330;48.158;11.816;2023-01-16T04:25:28;0.10;98.50
4635;DHT22;2330;48.158;11.816;2023-01-16T04:27:55;0.10;98.50
4635;DHT22;2330;48.158;11.816;2023-01-16T04:30:22;0.10;98.50
4635;DHT22;2330;48.158;11.816;2023-01-16T04:32:48;0.10;98.50
4635;DHT22;2330;48.158;11.816;2023-01-16T04:35:15;0.10;98.50
4635;DHT22;2330;48.158;11.816;2023-01-16T04:37:42;0.10;98.50
4635;DHT22;2330;48.158;11.816;2023-01-16T04:40:09;0.10;98.50
4635;DHT22;2330;48.158;11.816;2023-01-16T04:42:36;0.10;98.50
4635;DHT22;2330;48.158;11.816;2023-01-16T04:45:03;0.10;98.50
4635;DHT22;2330;48.158;11.816;2023-01-16T04:47:30;0.00;98.50
4635;DHT22;2330;48.158;11.816;2023-01-16T04:49:57;0.00;98.50
4635;DHT22;2330;48.158;11.816;2023-01-16T04:52:23;0.00;98.50
4635;DHT22;2330;48.158;11.816;2023-01-16T04:54:50;0.00;98.50
4635;DHT22;2330;48.158;11.816;2023-01-16T04:57:17;0.10;98.50
4635;DHT22;2330;48.158;11.816;2023-01-16T04:59:43;0.10;98.50
4635;DHT22;2330;48.158;11.816;2023-01-16T05:02:10;0.10;98.50
4635;DHT22;2330;48.158;11.816;2023-01-16T05:04:39;0.10;98.50
4635;DHT22;2330;48.158;11.816;2023-01-16T05:07:06;0.10;98.50
4635;DHT22;2330;48.158;11.816;2023-01-16T05:09:32;0.10;98.50
4635;DHT22;2330;48.158;11.816;2023-01-16T05:11:59;0.10;98.50
4635;DHT22;2330;48.158;11.816;2023-01-16T05:14:26;0.10;98.50
4635;DHT22;2330;48.158;11.816;2023-01-16T05:16:53;0.10;98.50
4635;DHT22;2330;48.158;11.816;2023-01-16T05:19:19;0.10;98.50
4635;DHT22;2330;48.158;11.816;2023-01-16T05:21:46;0.00;98.50
4635;DHT22;2330;48.158;11.816;2023-01-16T05:24:14;0.00;98.50
4635;DHT22;2330;48.158;11.816;2023-01-16T05:26:40;0.00;98.50
4635;DHT22;2330;48.158;11.816;2023-01-16T05:29:07;0.00;98.50
4635;DHT22;2330;48.158;11.816;2023-01-16T05:31:34;0.00;98.50
4635;DHT22;2330;48.158;11.816;2023-01-16T05:34:00;0.00;98.50
4635;DHT22;2330;48.158;11.816;2023-01-16T05:36:27;-0.10;98.50
4635;DHT22;2330;48.158;11.816;2023-01-16T05:38:54;-0.10;98.50
4635;DHT22;2330;48.158;11.816;2023-01-16T05:41:21;-0.10;98.50
4635;DHT22;2330;48.158;11.816;2023-01-16T05:43:47;-0.20;98.50
4635;DHT22;2330;48.158;11.816;2023-01-16T05:46:14;-0.20;98.50
4635;DHT22;2330;48.158;11.816;2023-01-16T05:48:41;-0.30;98.50
4635;DHT22;2330;48.158;11.816;2023-01-16T05:51:07;-0.30;98.50
4635;DHT22;2330;48.158;11.816;2023-01-16T05:53:34;-0.30;98.50
4635;DHT22;2330;48.158;11.816;2023-01-16T05:56:07;-0.30;98.50
4635;DHT22;2330;48.158;11.816;2023-01-16T05:58:34;-0.30;98.50
4635;DHT22;2330;48.158;11.816;2023-01-16T06:01:01;-0.30;98.50
4635;DHT22;2330;48.158;11.816;2023-01-16T06:03:28;-0.30;98.50
4635;DHT22;2330;48.158;11.816;2023-01-16T06:05:55;-0.40;98.50
4635;DHT22;2330;48.158;11.816;2023-01-16T06:08:22;-0.40;98.50
4635;DHT22;2330;48.158;11.816;2023-01-16T06:10:48;-0.50;98.50
4635;DHT22;2330;48.158;11.816;2023-01-16T06:13:16;-0.50;98.50
4635;DHT22;2330;48.158;11.816;2023-01-16T06:15:42;-0.50;98.50
4635;DHT22;2330;48.158;11.816;2023-01-16T06:18:09;-0.50;98.50
4635;DHT22;2330;48.158;11.816;2023-01-16T06:20:37;-0.60;98.50
4635;DHT22;2330;48.158;11.816;2023-01-16T06:23:03;-0.70;98.50
4635;DHT22;2330;48.158;11.816;2023-01-16T06:25:30;-0.70;98.50
4635;DHT22;2330;48.158;11.816;2023-01-16T06:27:57;-0.70;98.50
4635;DHT22;2330;48.158;11.816;2023-01-16T06:30:23;-0.80;98.50
4635;DHT22;2330;48.158;11.816;2023-01-16T06:32:50;-0.80;98.50
4635;DHT22;2330;48.158;11.816;2023-01-16T06:35:17;-0.80;98.50
4635;DHT22;2330;48.158;11.816;2023-01-16T06:37:44;-0.80;98.50
4635;DHT22;2330;48.158;11.816;2023-01-16T06:40:11;-0.80;98.50
4635;DHT22;2330;48.158;11.816;2023-01-16T06:42:38;-0.80;98.50
4635;DHT22;2330;48.158;11.816;2023-01-16T06:45:05;-0.80;98.50
4635;DHT22;2330;48.158;11.816;2023-01-16T06:47:32;-0.80;98.50
4635;DHT22;2330;48.158;11.816;2023-01-16T06:49:59;-0.80;98.50
4635;DHT22;2330;48.158;11.816;2023-01-16T06:52:26;-0.90;98.50
4635;DHT22;2330;48.158;11.816;2023-01-16T06:54:52;-0.90;98.50
4635;DHT22;2330;48.158;11.816;2023-01-16T06:57:19;-0.80;98.50
4635;DHT22;2330;48.158;11.816;2023-01-16T06:59:46;-0.80;98.50
4635;DHT22;2330;48.158;11.816;2023-01-16T07:02:13;-0.80;98.50
4635;DHT22;2330;48.158;11.816;2023-01-16T07:04:39;-0.70;98.50
4635;DHT22;2330;48.158;11.816;2023-01-16T07:07:06;-0.60;98.50
4635;DHT22;2330;48.158;11.816;2023-01-16T07:09:33;-0.40;98.50
4635;DHT22;2330;48.158;11.816;2023-01-16T07:12:00;-0.30;98.50
4635;DHT22;2330;48.158;11.816;2023-01-16T07:14:27;-0.20;98.50
4635;DHT22;2330;48.158;11.816;2023-01-16T07:17:12;-0.10;98.50
4635;DHT22;2330;48.158;11.816;2023-01-16T07:19:58;-0.10;98.50
4635;DHT22;2330;48.158;11.816;2023-01-16T07:22:44;-0.10;98.50
4635;DHT22;2330;48.158;11.816;2023-01-16T07:25:18;-0.20;98.50
4635;DHT22;2330;48.158;11.816;2023-01-16T07:27:47;-0.20;98.50
4635;DHT22;2330;48.158;11.816;2023-01-16T07:30:19;-0.20;98.50
4635;DHT22;2330;48.158;11.816;2023-01-16T07:32:47;-0.20;98.50
4635;DHT22;2330;48.158;11.816;2023-01-16T07:35:14;-0.20;98.50
4635;DHT22;2330;48.158;11.816;2023-01-16T07:37:41;-0.10;98.50
4635;DHT22;2330;48.158;11.816;2023-01-16T07:40:09;-0.20;98.50
4635;DHT22;2330;48.158;11.816;2023-01-16T07:42:36;-0.20;98.50
4635;DHT22;2330;48.158;11.816;2023-01-16T07:45:04;-0.20;98.50
4635;DHT22;2330;48.158;11.816;2023-01-16T07:47:31;-0.20;98.50
4635;DHT22;2330;48.158;11.816;2023-01-16T07:49:59;-0.10;98.50
4635;DHT22;2330;48.158;11.816;2023-01-16T07:52:27;-0.10;98.50
4635;DHT22;2330;48.158;11.816;2023-01-16T07:54:54;-0.10;98.50
4635;DHT22;2330;48.158;11.816;2023-01-16T07:57:21;0.00;98.50
4635;DHT22;2330;48.158;11.816;2023-01-16T07:59:48;0.10;98.50
4635;DHT22;2330;48.158;11.816;2023-01-16T08:02:14;0.10;98.50
4635;DHT22;2330;48.158;11.816;2023-01-16T08:04:41;0.10;98.50
4635;DHT22;2330;48.158;11.816;2023-01-16T08:07:08;0.20;98.50
4635;DHT22;2330;48.158;11.816;2023-01-16T08:09:34;0.20;98.50
4635;DHT22;2330;48.158;11.816;2023-01-16T08:12:03;0.30;98.50
4635;DHT22;2330;48.158;11.816;2023-01-16T08:14:30;0.20;98.50
4635;DHT22;2330;48.158;11.816;2023-01-16T08:16:56;0.20;98.50
4635;DHT22;2330;48.158;11.816;2023-01-16T08:19:23;0.30;98.50
4635;DHT22;2330;48.158;11.816;2023-01-16T08:21:50;0.40;98.50
4635;DHT22;2330;48.158;11.816;2023-01-16T08:24:16;0.40;98.50
4635;DHT22;2330;48.158;11.816;2023-01-16T08:26:44;0.60;98.50
4635;DHT22;2330;48.158;11.816;2023-01-16T08:29:10;0.60;98.50
4635;DHT22;2330;48.158;11.816;2023-01-16T08:31:37;0.70;98.50
4635;DHT22;2330;48.158;11.816;2023-01-16T08:34:04;0.70;98.50
4635;DHT22;2330;48.158;11.816;2023-01-16T08:36:31;1.00;98.50
4635;DHT22;2330;48.158;11.816;2023-01-16T08:38:58;1.20;98.50
4635;DHT22;2330;48.158;11.816;2023-01-16T08:41:24;1.20;98.50
4635;DHT22;2330;48.158;11.816;2023-01-16T08:44:10;1.20;98.50
4635;DHT22;2330;48.158;11.816;2023-01-16T08:47:01;1.30;98.50
4635;DHT22;2330;48.158;11.816;2023-01-16T08:49:47;1.40;98.50
4635;DHT22;2330;48.158;11.816;2023-01-16T08:52:33;1.50;98.50
4635;DHT22;2330;48.158;11.816;2023-01-16T08:55:03;1.60;98.50
4635;DHT22;2330;48.158;11.816;2023-01-16T08:57:30;1.70;98.50
4635;DHT22;2330;48.158;11.816;2023-01-16T08:59:57;1.90;98.50
4635;DHT22;2330;48.158;11.816;2023-01-16T09:02:25;2.00;98.50
4635;DHT22;2330;48.158;11.816;2023-01-16T09:04:53;2.00;98.50
4635;DHT22;2330;48.158;11.816;2023-01-16T09:07:21;2.00;98.50
4635;DHT22;2330;48.158;11.816;2023-01-16T09:09:48;2.10;98.50
4635;DHT22;2330;48.158;11.816;2023-01-16T09:12:15;2.20;98.50
4635;DHT22;2330;48.158;11.816;2023-01-16T09:15:02;2.30;98.50
4635;DHT22;2330;48.158;11.816;2023-01-16T09:17:29;2.40;98.50
4635;DHT22;2330;48.158;11.816;2023-01-16T09:19:56;2.50;98.50
4635;DHT22;2330;48.158;11.816;2023-01-16T09:22:23;2.60;98.50
4635;DHT22;2330;48.158;11.816;2023-01-16T09:24:49;2.70;98.50
4635;DHT22;2330;48.158;11.816;2023-01-16T09:27:16;2.90;98.50
4635;DHT22;2330;48.158;11.816;2023-01-16T09:29:45;3.00;98.50
4635;DHT22;2330;48.158;11.816;2023-01-16T09:32:12;2.90;98.50
4635;DHT22;2330;48.158;11.816;2023-01-16T09:34:39;3.00;98.50
4635;DHT22;2330;48.158;11.816;2023-01-16T09:37:08;3.10;98.50
4635;DHT22;2330;48.158;11.816;2023-01-16T09:39:35;3.30;98.50
4635;DHT22;2330;48.158;11.816;2023-01-16T09:45:14;3.20;98.50
4635;DHT22;2330;48.158;11.816;2023-01-16T09:47:44;3.10;98.50
4635;DHT22;2330;48.158;11.816;2023-01-16T09:50:24;3.30;98.50
4635;DHT22;2330;48.158;11.816;2023-01-16T09:52:52;3.50;98.50
4635;DHT22;2330;48.158;11.816;2023-01-16T09:55:47;3.50;98.50
4635;DHT22;2330;48.158;11.816;2023-01-16T09:58:39;3.70;98.50
4635;DHT22;2330;48.158;11.816;2023-01-16T10:01:15;3.70;98.50
4635;DHT22;2330;48.158;11.816;2023-01-16T10:03:43;3.40;98.50
4635;DHT22;2330;48.158;11.816;2023-01-16T10:06:29;3.60;98.50
4635;DHT22;2330;48.158;11.816;2023-01-16T10:09:32;3.70;98.50
4635;DHT22;2330;48.158;11.816;2023-01-16T10:12:11;3.80;98.50
4635;DHT22;2330;48.158;11.816;2023-01-16T10:17:25;3.70;98.50
4635;DHT22;2330;48.158;11.816;2023-01-16T10:20:15;3.60;98.50
4635;DHT22;2330;48.158;11.816;2023-01-16T10:25:52;3.60;98.50
4635;DHT22;2330;48.158;11.816;2023-01-16T10:28:24;3.60;98.50
4635;DHT22;2330;48.158;11.816;2023-01-16T10:31:02;3.50;98.50
4635;DHT22;2330;48.158;11.816;2023-01-16T10:36:43;3.50;98.50
4635;DHT22;2330;48.158;11.816;2023-01-16T10:39:12;3.80;98.50
4635;DHT22;2330;48.158;11.816;2023-01-16T10:41:46;3.90;98.50
4635;DHT22;2330;48.158;11.816;2023-01-16T10:44:33;3.90;98.50
4635;DHT22;2330;48.158;11.816;2023-01-16T10:47:28;4.00;98.50
4635;DHT22;2330;48.158;11.816;2023-01-16T10:50:16;4.00;98.50
4635;DHT22;2330;48.158;11.816;2023-01-16T10:53:01;4.30;98.50
4635;DHT22;2330;48.158;11.816;2023-01-16T10:55:29;4.30;98.50
4635;DHT22;2330;48.158;11.816;2023-01-16T10:58:03;4.20;98.50
4635;DHT22;2330;48.158;11.816;2023-01-16T11:00:41;4.20;98.50
4635;DHT22;2330;48.158;11.816;2023-01-16T11:05:39;4.10;98.50
4635;DHT22;2330;48.158;11.816;2023-01-16T11:08:17;4.20;98.50
4635;DHT22;2330;48.158;11.816;2023-01-16T11:10:47;4.20;98.50
4635;DHT22;2330;48.158;11.816;2023-01-16T11:13:15;4.00;98.50
4635;DHT22;2330;48.158;11.816;2023-01-16T11:18:58;4.00;98.50
4635;DHT22;2330;48.158;11.816;2023-01-16T11:21:31;4.30;98.50
4635;DHT22;2330;48.158;11.816;2023-01-16T11:24:13;4.60;98.50
4635;DHT22;2330;48.158;11.816;2023-01-16T11:26:51;4.90;98.50
4635;DHT22;2330;48.158;11.816;2023-01-16T11:29:21;5.00;98.50
4635;DHT22;2330;48.158;11.816;2023-01-16T11:31:55;5.20;98.50
4635;DHT22;2330;48.158;11.816;2023-01-16T11:34:24;5.40;97.80
4635;DHT22;2330;48.158;11.816;2023-01-16T11:36:54;5.20;96.00
4635;DHT22;2330;48.158;11.816;2023-01-16T11:39:25;5.00;96.50
4635;DHT22;2330;48.158;11.816;2023-01-16T11:41:54;5.00;95.80
4635;DHT22;2330;48.158;11.816;2023-01-16T11:44:26;5.10;96.00
4635;DHT22;2330;48.158;11.816;2023-01-16T11:47:15;5.20;95.70
4635;DHT22;2330;48.158;11.816;2023-01-16T11:49:48;5.30;94.50
4635;DHT22;2330;48.158;11.816;2023-01-16T11:52:18;5.40;94.70
4635;DHT22;2330;48.158;11.816;2023-01-16T11:55:01;5.30;94.90
4635;DHT22;2330;48.158;11.816;2023-01-16T11:58:02;5.20;95.70
4635;DHT22;2330;48.158;11.816;2023-01-16T12:01:08;5.30;95.90
4635;DHT22;2330;48.158;11.816;2023-01-16T12:04:08;5.60;96.30
4635;DHT22;2330;48.158;11.816;2023-01-16T12:06:49;5.80;95.90
4635;DHT22;2330;48.158;11.816;2023-01-16T12:09:38;5.80;95.60
4635;DHT22;2330;48.158;11.816;2023-01-16T12:12:30;5.80;96.90
4635;DHT22;2330;48.158;11.816;2023-01-16T12:15:40;6.00;96.20
4635;DHT22;2330;48.158;11.816;2023-01-16T12:18:21;5.90;95.80
4635;DHT22;2330;48.158;11.816;2023-01-16T12:21:01;5.90;96.60
4635;DHT22;2330;48.158;11.816;2023-01-16T12:23:52;6.00;95.80
4635;DHT22;2330;48.158;11.816;2023-01-16T12:26:34;5.80;95.20
4635;DHT22;2330;48.158;11.816;2023-01-16T12:29:31;6.10;94.90
4635;DHT22;2330;48.158;11.816;2023-01-16T12:35:06;6.50;95.00
4635;DHT22;2330;48.158;11.816;2023-01-16T12:46:24;5.90;95.00
4635;DHT22;2330;48.158;11.816;2023-01-16T12:49:00;5.80;95.60
4635;DHT22;2330;48.158;11.816;2023-01-16T12:51:43;5.60;95.90
4635;DHT22;2330;48.158;11.816;2023-01-16T12:59:40;5.40;97.20
4635;DHT22;2330;48.158;11.816;2023-01-16T13:04:44;5.30;97.30
4635;DHT22;2330;48.158;11.816;2023-01-16T13:07:16;5.20;97.50
4635;DHT22;2330;48.158;11.816;2023-01-16T13:09:59;5.30;98.00
4635;DHT22;2330;48.158;11.816;2023-01-16T13:12:46;5.30;98.20
4635;DHT22;2330;48.158;11.816;2023-01-16T13:15:35;5.20;98.20
4635;DHT22;2330;48.158;11.816;2023-01-16T13:20:38;5.20;98.30
4635;DHT22;2330;48.158;11.816;2023-01-16T13:23:17;5.10;98.50
4635;DHT22;2330;48.158;11.816;2023-01-16T13:25:47;5.00;98.50
4635;DHT22;2330;48.158;11.816;2023-01-16T13:28:24;5.00;98.50
4635;DHT22;2330;48.158;11.816;2023-01-16T13:30:58;5.00;98.50
4635;DHT22;2330;48.158;11.816;2023-01-16T13:33:29;5.00;98.50
4635;DHT22;2330;48.158;11.816;2023-01-16T13:36:03;5.00;98.50
4635;DHT22;2330;48.158;11.816;2023-01-16T13:38:54;5.00;98.50
4635;DHT22;2330;48.158;11.816;2023-01-16T13:41:35;5.00;98.50
4635;DHT22;2330;48.158;11.816;2023-01-16T13:44:22;5.00;98.50
4635;DHT22;2330;48.158;11.816;2023-01-16T13:47:12;4.90;98.50
4635;DHT22;2330;48.158;11.816;2023-01-16T13:49:40;4.90;98.50
4635;DHT22;2330;48.158;11.816;2023-01-16T13:52:19;4.90;98.50
4635;DHT22;2330;48.158;11.816;2023-01-16T13:54:48;4.90;98.50
4635;DHT22;2330;48.158;11.816;2023-01-16T13:57:21;4.90;98.50
4635;DHT22;2330;48.158;11.816;2023-01-16T13:59:53;4.90;98.50
4635;DHT22;2330;48.158;11.816;2023-01-16T14:11:12;4.90;98.50
4635;DHT22;2330;48.158;11.816;2023-01-16T14:13:37;4.80;98.50
4635;DHT22;2330;48.158;11.816;2023-01-16T14:16:26;4.80;98.50
4635;DHT22;2330;48.158;11.816;2023-01-16T14:19:02;4.70;98.50
4635;DHT22;2330;48.158;11.816;2023-01-16T14:24:18;4.70;98.50
4635;DHT22;2330;48.158;11.816;2023-01-16T14:26:46;4.80;98.50
4635;DHT22;2330;48.158;11.816;2023-01-16T14:29:21;4.70;98.50
4635;DHT22;2330;48.158;11.816;2023-01-16T14:37:15;4.60;98.50
4635;DHT22;2330;48.158;11.816;2023-01-16T14:42:40;4.60;98.50
4635;DHT22;2330;48.158;11.816;2023-01-16T14:45:32;4.60;98.50
4635;DHT22;2330;48.158;11.816;2023-01-16T14:54:26;4.40;98.50
4635;DHT22;2330;48.158;11.816;2023-01-16T14:57:18;4.40;98.50
4635;DHT22;2330;48.158;11.816;2023-01-16T15:07:40;4.20;98.50
4635;DHT22;2330;48.158;11.816;2023-01-16T15:10:39;4.20;98.50
4635;DHT22;2330;48.158;11.816;2023-01-16T15:13:24;4.20;98.50
4635;DHT22;2330;48.158;11.816;2023-01-16T15:16:04;4.10;98.50
4635;DHT22;2330;48.158;11.816;2023-01-16T15:18:31;4.10;98.50
4635;DHT22;2330;48.158;11.816;2023-01-16T15:21:20;4.00;98.50
4635;DHT22;2330;48.158;11.816;2023-01-16T15:24:07;3.90;98.50
4635;DHT22;2330;48.158;11.816;2023-01-16T15:26:46;3.90;98.50
4635;DHT22;2330;48.158;11.816;2023-01-16T15:29:42;3.90;98.50
4635;DHT22;2330;48.158;11.816;2023-01-16T15:32:14;3.90;98.50
4635;DHT22;2330;48.158;11.816;2023-01-16T15:35:09;3.90;98.50
4635;DHT22;2330;48.158;11.816;2023-01-16T15:37:49;3.90;98.50
4635;DHT22;2330;48.158;11.816;2023-01-16T15:40:27;3.90;98.50
4635;DHT22;2330;48.158;11.816;2023-01-16T15:42:55;3.80;98.50
4635;DHT22;2330;48.158;11.816;2023-01-16T15:46:25;3.80;98.50
4635;DHT22;2330;48.158;11.816;2023-01-16T15:51:56;3.80;98.50
4635;DHT22;2330;48.158;11.816;2023-01-16T15:54:25;3.70;98.50
4635;DHT22;2330;48.158;11.816;2023-01-16T15:56:52;3.70;98.50
4635;DHT22;2330;48.158;11.816;2023-01-16T15:59:27;3.60;98.50
4635;DHT22;2330;48.158;11.816;2023-01-16T16:02:16;3.60;98.50
4635;DHT22;2330;48.158;11.816;2023-01-16T16:04:44;3.50;98.50
4635;DHT22;2330;48.158;11.816;2023-01-16T16:07:12;3.50;98.50
4635;DHT22;2330;48.158;11.816;2023-01-16T16:09:42;3.40;98.50
4635;DHT22;2330;48.158;11.816;2023-01-16T16:12:10;3.40;98.50
4635;DHT22;2330;48.158;11.816;2023-01-16T16:14:37;3.30;98.50
4635;DHT22;2330;48.158;11.816;2023-01-16T16:20:35;3.20;98.50
4635;DHT22;2330;48.158;11.816;2023-01-16T16:23:22;3.20;98.50
4635;DHT22;2330;48.158;11.816;2023-01-16T16:25:58;3.10;98.50
4635;DHT22;2330;48.158;11.816;2023-01-16T16:28:34;3.10;98.50
4635;DHT22;2330;48.158;11.816;2023-01-16T16:31:30;3.00;98.50
4635;DHT22;2330;48.158;11.816;2023-01-16T16:36:25;2.90;98.50
4635;DHT22;2330;48.158;11.816;2023-01-16T16:38:54;2.90;98.50
4635;DHT22;2330;48.158;11.816;2023-01-16T16:44:25;2.80;98.50
4635;DHT22;2330;48.158;11.816;2023-01-16T16:46:58;2.80;98.50
4635;DHT22;2330;48.158;11.816;2023-01-16T16:49:26;2.80;98.50
4635;DHT22;2330;48.158;11.816;2023-01-16T16:51:53;2.70;98.50
4635;DHT22;2330;48.158;11.816;2023-01-16T16:54:25;2.70;98.50
4635;DHT22;2330;48.158;11.816;2023-01-16T16:56:54;2.60;98.50
4635;DHT22;2330;48.158;11.816;2023-01-16T16:59:25;2.60;98.50
4635;DHT22;2330;48.158;11.816;2023-01-16T17:01:57;2.60;98.50
4635;DHT22;2330;48.158;11.816;2023-01-16T17:04:34;2.50;98.50
4635;DHT22;2330;48.158;11.816;2023-01-16T17:07:01;2.50;98.50
4635;DHT22;2330;48.158;11.816;2023-01-16T17:09:28;2.50;98.50
4635;DHT22;2330;48.158;11.816;2023-01-16T17:12:12;2.50;98.50
4635;DHT22;2330;48.158;11.816;2023-01-16T17:14:39;2.40;98.50
4635;DHT22;2330;48.158;11.816;2023-01-16T17:17:13;2.40;98.50
4635;DHT22;2330;48.158;11.816;2023-01-16T17:19:41;2.40;98.50
4635;DHT22;2330;48.158;11.816;2023-01-16T17:22:09;2.40;98.50
4635;DHT22;2330;48.158;11.816;2023-01-16T17:24:38;2.50;98.50
4635;DHT22;2330;48.158;11.816;2023-01-16T17:27:04;2.50;98.50
4635;DHT22;2330;48.158;11.816;2023-01-16T17:29:36;2.40;98.50
4635;DHT22;2330;48.158;11.816;2023-01-16T17:32:27;2.40;98.50
4635;DHT22;2330;48.158;11.816;2023-01-16T17:34:58;2.30;98.50
4635;DHT22;2330;48.158;11.816;2023-01-16T17:37:25;2.20;98.50
4635;DHT22;2330;48.158;11.816;2023-01-16T17:39:52;2.20;98.50
4635;DHT22;2330;48.158;11.816;2023-01-16T17:42:19;2.20;98.50
4635;DHT22;2330;48.158;11.816;2023-01-16T17:44:45;2.20;98.50
4635;DHT22;2330;48.158;11.816;2023-01-16T17:47:31;2.20;98.50
4635;DHT22;2330;48.158;11.816;2023-01-16T17:49:58;2.20;98.50
4635;DHT22;2330;48.158;11.816;2023-01-16T17:52:43;2.20;98.50
4635;DHT22;2330;48.158;11.816;2023-01-16T17:55:10;2.20;98.50
4635;DHT22;2330;48.158;11.816;2023-01-16T17:57:57;2.20;98.50
4635;DHT22;2330;48.158;11.816;2023-01-16T18:00:24;2.20;98.50
4635;DHT22;2330;48.158;11.816;2023-01-16T18:02:51;2.20;98.50
4635;DHT22;2330;48.158;11.816;2023-01-16T18:05:18;2.20;98.50
4635;DHT22;2330;48.158;11.816;2023-01-16T18:07:45;2.20;98.50
4635;DHT22;2330;48.158;11.816;2023-01-16T18:10:11;2.20;98.50
4635;DHT22;2330;48.158;11.816;2023-01-16T18:12:38;2.20;98.50
4635;DHT22;2330;48.158;11.816;2023-01-16T18:15:23;2.20;98.50
4635;DHT22;2330;48.158;11.816;2023-01-16T18:18:09;2.20;98.50
4635;DHT22;2330;48.158;11.816;2023-01-16T18:20:39;2.20;98.50
4635;DHT22;2330;48.158;11.816;2023-01-16T18:23:06;2.20;98.50
4635;DHT22;2330;48.158;11.816;2023-01-16T18:25:32;2.10;98.50
4635;DHT22;2330;48.158;11.816;2023-01-16T18:27:59;2.10;98.50
4635;DHT22;2330;48.158;11.816;2023-01-16T18:30:26;2.00;98.50
4635;DHT22;2330;48.158;11.816;2023-01-16T18:32:53;2.00;98.50
4635;DHT22;2330;48.158;11.816;2023-01-16T18:35:19;1.90;98.50
4635;DHT22;2330;48.158;11.816;2023-01-16T18:37:47;1.80;98.50
4635;DHT22;2330;48.158;11.816;2023-01-16T18:40:32;1.70;98.50
4635;DHT22;2330;48.158;11.816;2023-01-16T18:43:18;1.70;98.50